toledoroadrunners.png

 

OVR NAME HOMETOWN DIVISION Full Course Net Time PACE GENDER_RANK DIV_RANK
1 CAM MCCARTHY Maumee, OH Male 40:26.0 6:28 1 1
2 JULIE RIFFLE PERRYSBURG, OH Female 46:36.7 6:52 1 1
3 MARISSA WARD STRONGSVILLE, OH Female 25-29 48:41.1 7:00 2 1
4 ADAM SWARTZ Walbridge, OH Male 35-39 53:38.0 7:19 2 1
5 TOBIAS FLEMMING Waterville, OH Male 30-34 55:26.7 7:26 3 1
6 JEFF YOST Monclova, OH Male Master 58:03.1 7:36 4 1
7 JONATHAN MILLER TIFFIN, OH Male 25-29 58:30.7 7:38 5 1
8 DENNIS KENNEDY WHITEHOUSE, OH Male 35-39 59:19.7 7:41 6 2
9 ANDRES CASTRILLON PERRYSBURG, OH Male 45-49 05:28.1 8:05 7 1
10 CHARLES FRITZ DEWITT, MI Male 45-49 06:51.0 8:10 8 2
11 DENNIS DELAPP SYLVANIA, OH Male Grandmaster 11:06.9 8:27 9 1
12 TONY HILLS Bryan, OH Male 45-49 14:48.4 8:41 10 3
13 ASHLEY RICKNER Napoleon, OH Female 30-34 19:30.6 8:59 3 1
14 CHERYL BROGAN Perrysburg, OH Female 35-39 20:02.1 9:01 4 1
15 JASON LOCKARD SWANTON, OH Male 45-49 20:54.1 9:05 11 4
16 ALLISON STACCONE TOLEDO, OH Female 35-39 21:21.8 9:07 5 2
17 JILL WILSON LUCKEY, OH Female Master 21:58.3 9:09 6 1
18 KRISTINE KOTSCH DEWITT, MI Female Grandmaster 24:03.0 9:17 7 1
19 LISA TAYLOR WYANDOTTE, MI Female 40-44 28:47.5 9:35 8 1
20 MERCEDEZ HATHCOCK OLMSTED FALLS, OH Female 45-49 41:23.1 10:24 9 1
21 FRANK CODY MAUMEE, OH Male 70-74 41:34.1 10:25 12 1
22 SARAH SARGENT TOLEDO, OH Female 30-34 43:58.3 10:34 10 2
23 GREG GASIOROWSKI Toledo, OH Male 55-59 54:18.7 11:14 13 1
24 CHRISTINA JACKSON MAUMEE, OH Female 30-34 55:51.0 11:20 11 3
25 J.D. MCCOY SYLVANIA, OH Male 60-64 57:37.6 11:27 14 1
26 HEATHER FRITSCH PERRYSBURG, OH Female 30-34 03:11.4 11:48 12 4
27 ASHLEY KENDALL ARCHBOLD, OH Female 30-34 03:12.1 11:48 13 5
28 DENISE DASHER Temperance, MI Female 50-54 09:11.6 12:11 14 1
29 LINDA HORDAK NEEB TOLEDO, OH Female 60-64 17:22.5 12:43 15 1
30 CARLOS CARVALHO PERRYSBURG, OH Male 70-74 49:43.7 14:48 15 2

 

 

Join us for our premier races

 

 

 

 

2020 GCM logo

 

 Churchills Half Marathon

  Midnight Special Logo
Free business joomla templates

Distributed by SiteGround